Weather at Karolin Airfield

Public forecast

Using degrees Celsius for public forecast. Weather courtesy of forecast.io.

Closest aviation weather report (METAR) to Karolin Airfield

Report is more than 2 hours old.

Closest report is Hrodna Airport, 11.5 nm (21.3 km) E.

2024/06/14 13:00 (retrieved 4 hours ago)

UMMG 141300Z 02003MPS 9999 BKN040 17/10 Q1015 NOSIG

Closest aviation forecast (TAF) to Karolin Airfield

Closest forecast is Kaunas International Airport, 80.9 nm (149.8 km) N.

2024/06/14 12:15 Correction (retrieved 4 hours ago)

TAF COR EYKA 141111Z 1412/1518 VRB05KT 9000 SCT035 TEMPO 1412/1418 SCT030CB PROB40 TEMPO 1412/1418 35015KT 5000 SHRA TEMPO 1421/1424 3000 MIFG BR TEMPO 1500/1504 0300 FG VV002